createdAt,value
2022-09-09T00:03:19.519Z,98607.75
2022-09-09T00:08:32.671Z,98613.20
2022-09-09T00:13:43.750Z,98619.17
2022-09-09T00:19:19.233Z,98612.11
2022-09-09T00:24:45.128Z,98617.11
2022-09-09T00:30:15.291Z,98609.65
2022-09-09T00:35:24.910Z,98612.25
2022-09-09T00:40:33.126Z,98615.97
2022-09-09T00:46:03.858Z,98612.46
2022-09-09T00:51:24.893Z,98621.81
2022-09-09T00:57:03.307Z,98630.54
2022-09-09T01:02:23.463Z,98631.20
2022-09-09T01:07:27.354Z,98630.91
2022-09-09T01:12:44.843Z,98632.45
2022-09-09T01:17:59.185Z,98644.28
2022-09-09T01:23:36.570Z,98649.61
2022-09-09T01:28:55.697Z,98654.06
2022-09-09T01:34:12.715Z,98653.66
2022-09-09T01:39:16.339Z,98662.02
2022-09-09T01:44:21.102Z,98671.09
2022-09-09T01:49:24.822Z,98676.77
2022-09-09T01:54:31.043Z,98678.33
2022-09-09T02:00:11.773Z,98685.08
2022-09-09T02:05:38.052Z,98694.13
2022-09-09T02:10:59.747Z,98696.25
2022-09-09T02:16:25.752Z,98702.16
2022-09-09T02:21:33.032Z,98710.11
2022-09-09T02:26:41.541Z,98708.21
2022-09-09T02:31:48.425Z,98712.22
2022-09-09T02:36:56.391Z,98717.61
2022-09-09T02:41:59.312Z,98727.07
2022-09-09T02:47:29.689Z,98730.00
2022-09-09T02:53:00.260Z,98735.17
2022-09-09T02:58:08.199Z,98743.70
2022-09-09T03:03:12.037Z,98742.92
2022-09-09T03:08:15.615Z,98748.05
2022-09-09T03:13:20.410Z,98754.98
2022-09-09T03:18:24.182Z,98753.98
2022-09-09T03:23:29.246Z,98754.84
2022-09-09T03:28:34.303Z,98755.28
2022-09-09T03:33:39.265Z,98749.88
2022-09-09T03:38:42.962Z,98750.89
2022-09-09T03:43:46.001Z,98754.84
2022-09-09T03:48:49.100Z,98757.17
2022-09-09T03:53:52.115Z,98763.59
2022-09-09T03:58:55.193Z,98771.29
2022-09-09T04:03:59.302Z,98772.77
2022-09-09T04:09:04.348Z,98771.77
2022-09-09T04:14:07.743Z,98780.70
2022-09-09T04:19:14.767Z,98773.75
2022-09-09T04:24:18.738Z,98782.86
2022-09-09T04:29:21.828Z,98782.95
2022-09-09T04:34:24.816Z,98775.67
2022-09-09T04:39:31.931Z,98777.98
2022-09-09T04:44:35.721Z,98775.42
2022-09-09T04:49:39.558Z,98771.75
2022-09-09T04:54:42.757Z,98773.19
2022-09-09T04:59:46.936Z,98777.58
2022-09-09T05:04:50.850Z,98779.02
2022-09-09T05:09:53.891Z,98779.11
2022-09-09T05:14:56.763Z,98784.04
2022-09-09T05:19:59.873Z,98788.56
2022-09-09T05:25:03.220Z,98794.71
2022-09-09T05:30:07.516Z,98796.30
2022-09-09T05:35:11.241Z,98802.14
2022-09-09T05:40:15.696Z,98802.84
2022-09-09T05:45:18.596Z,98810.64
2022-09-09T05:50:21.573Z,98808.52
2022-09-09T05:55:26.645Z,98808.38
2022-09-09T06:00:32.715Z,98813.42
2022-09-09T06:05:36.290Z,98810.43
2022-09-09T06:10:39.241Z,98816.10
2022-09-09T06:15:51.231Z,98825.77
2022-09-09T06:21:02.127Z,98832.33
2022-09-09T06:26:09.199Z,98832.34
2022-09-09T06:31:14.892Z,98837.16
2022-09-09T06:36:19.514Z,98834.79
2022-09-09T06:41:23.939Z,98829.68
2022-09-09T06:46:29.415Z,98831.34
2022-09-09T06:51:35.783Z,98829.45
2022-09-09T06:56:44.643Z,98826.55
2022-09-09T07:01:58.136Z,98825.96
2022-09-09T07:07:02.624Z,98827.63
2022-09-09T07:12:06.966Z,98825.06
2022-09-09T07:17:10.720Z,98828.20
2022-09-09T07:22:15.681Z,98828.02
2022-09-09T07:27:19.025Z,98830.41
2022-09-09T07:32:24.424Z,98825.93
2022-09-09T07:37:27.827Z,98822.56
2022-09-09T07:42:31.156Z,98826.33
2022-09-09T07:47:34.725Z,98829.02
2022-09-09T07:52:38.607Z,98826.19
2022-09-09T07:57:42.265Z,98835.01
2022-09-09T08:02:45.780Z,98838.22
2022-09-09T08:07:49.329Z,98829.32
2022-09-09T08:13:14.921Z,98829.27
2022-09-09T08:18:16.652Z,98833.50
2022-09-09T08:23:20.307Z,98832.98
2022-09-09T08:28:23.274Z,98840.55
2022-09-09T08:33:26.728Z,98846.08
2022-09-09T08:38:29.773Z,98841.58
2022-09-09T08:43:34.416Z,98844.14
2022-09-09T08:48:49.970Z,98840.10
2022-09-09T08:53:59.018Z,98848.59
2022-09-09T08:59:04.486Z,98851.02
2022-09-09T09:04:40.705Z,98846.08
2022-09-09T09:10:00.286Z,98853.41
2022-09-09T09:15:18.197Z,98858.83
2022-09-09T09:20:45.253Z,98854.77
2022-09-09T09:25:51.244Z,98858.45
2022-09-09T09:31:02.806Z,98854.98
2022-09-09T09:36:09.215Z,98846.44
2022-09-09T09:41:12.517Z,98853.27
2022-09-09T09:46:24.851Z,98855.44
2022-09-09T09:51:31.437Z,98846.08
2022-09-09T09:56:34.682Z,98843.96
2022-09-09T10:02:18.322Z,98843.52
2022-09-09T10:07:23.656Z,98840.17
2022-09-09T10:13:02.061Z,98842.84
2022-09-09T10:18:23.105Z,98836.94
2022-09-09T10:23:28.709Z,98827.75
2022-09-09T10:28:50.500Z,98825.98
2022-09-09T10:34:18.320Z,98830.60
2022-09-09T10:39:39.223Z,98837.47
2022-09-09T10:45:09.426Z,98831.23
2022-09-09T10:50:28.076Z,98831.89
2022-09-09T10:55:46.470Z,98841.71
2022-09-09T11:00:58.281Z,98838.38
2022-09-09T11:06:07.862Z,98831.76
2022-09-09T11:11:33.261Z,98833.66
2022-09-09T11:16:49.709Z,98840.64
2022-09-09T11:21:54.407Z,98837.43
2022-09-09T11:27:04.202Z,98828.15
2022-09-09T11:32:48.290Z,98830.73
2022-09-09T11:38:06.136Z,98825.08
2022-09-09T11:43:32.061Z,98829.50
2022-09-09T11:53:29.196Z,98825.39
2022-09-09T11:58:39.294Z,98814.50
2022-09-09T12:03:47.967Z,98820.48
2022-09-09T12:08:58.233Z,98814.64
2022-09-09T12:14:02.327Z,98819.30
2022-09-09T12:19:06.816Z,98818.91
2022-09-09T12:24:20.060Z,98816.44
2022-09-09T12:29:34.295Z,98808.14
2022-09-09T12:34:42.684Z,98817.06
2022-09-09T12:39:52.402Z,98812.97
2022-09-09T12:45:18.103Z,98810.63
2022-09-09T12:50:27.354Z,98810.45
2022-09-09T12:55:34.469Z,98813.19
2022-09-09T13:00:37.420Z,98803.89
2022-09-09T13:05:40.399Z,98812.07
2022-09-09T13:10:58.670Z,98816.14
2022-09-09T13:16:09.537Z,98802.66
2022-09-09T13:21:12.979Z,98794.07
2022-09-09T13:26:24.286Z,98795.14
2022-09-09T13:31:33.801Z,98794.52
2022-09-09T13:36:36.896Z,98793.36
2022-09-09T13:41:49.584Z,98794.09
2022-09-09T13:47:10.572Z,98789.52
2022-09-09T13:52:19.944Z,98787.30
2022-09-09T13:57:26.337Z,98785.98
2022-09-09T14:02:29.381Z,98777.86
2022-09-09T14:07:33.188Z,98780.79
2022-09-09T14:12:37.430Z,98787.33
2022-09-09T14:17:40.414Z,98780.56
2022-09-09T14:22:43.309Z,98780.30
2022-09-09T14:27:47.042Z,98785.39
2022-09-09T14:32:50.037Z,98783.61
2022-09-09T14:37:52.905Z,98773.89
2022-09-09T14:42:57.476Z,98772.23
2022-09-09T14:48:00.986Z,98762.33
2022-09-09T14:53:03.948Z,98762.00
2022-09-09T14:58:07.387Z,98757.99
2022-09-09T15:03:11.893Z,98756.27
2022-09-09T15:08:17.163Z,98749.33
2022-09-09T15:13:20.037Z,98750.41
2022-09-09T15:18:22.901Z,98756.27
2022-09-09T15:23:26.129Z,98747.19
2022-09-09T15:28:29.653Z,98754.85
2022-09-09T15:33:33.132Z,98743.84
2022-09-09T15:38:35.915Z,98750.88
2022-09-09T15:43:40.321Z,98752.97
2022-09-09T15:48:46.661Z,98755.30
2022-09-09T15:53:58.655Z,98762.86
2022-09-09T15:59:04.809Z,98770.33
2022-09-09T16:04:07.765Z,98767.75
2022-09-09T16:09:11.309Z,98770.89
2022-09-09T16:14:16.711Z,98769.33
2022-09-09T16:19:20.190Z,98772.22
2022-09-09T16:24:24.731Z,98770.75
2022-09-09T16:29:28.434Z,98772.64
2022-09-09T16:34:31.910Z,98771.30
2022-09-09T16:39:34.997Z,98776.25
2022-09-09T16:44:38.336Z,98773.95
2022-09-09T16:49:41.787Z,98776.13
2022-09-09T16:54:46.346Z,98772.65
2022-09-09T16:59:50.284Z,98766.95
2022-09-09T17:04:53.656Z,98762.01
2022-09-09T17:09:56.807Z,98768.41
2022-09-09T17:15:01.783Z,98771.56
2022-09-09T17:20:07.302Z,98768.52
2022-09-09T17:25:10.159Z,98770.16
2022-09-09T17:30:13.702Z,98772.56
2022-09-09T17:35:17.409Z,98774.05
2022-09-09T17:40:21.420Z,98782.23
2022-09-09T17:45:24.350Z,98796.80
2022-09-09T17:50:27.485Z,98801.30
2022-09-09T17:55:30.292Z,98803.69
2022-09-09T18:00:33.335Z,98807.21
2022-09-09T18:05:36.196Z,98810.88
2022-09-09T18:10:39.717Z,98811.88
2022-09-09T18:15:49.221Z,98805.35
2022-09-09T18:20:59.858Z,98804.38
2022-09-09T18:26:11.140Z,98813.86
2022-09-09T18:31:16.039Z,98821.26
2022-09-09T18:36:44.487Z,98819.04
2022-09-09T18:41:50.379Z,98837.48
2022-09-09T18:46:54.518Z,98835.13
2022-09-09T18:51:58.074Z,98831.41
2022-09-09T18:57:01.596Z,98826.89
2022-09-09T19:02:04.894Z,98826.91
2022-09-09T19:07:08.004Z,98834.48
2022-09-09T19:12:11.170Z,98833.49
2022-09-09T19:17:14.214Z,98836.95
2022-09-09T19:22:17.902Z,98835.63
2022-09-09T19:27:20.819Z,98836.54
2022-09-09T19:37:47.814Z,98830.30
2022-09-09T19:42:53.566Z,98834.02
2022-09-09T19:47:56.466Z,98835.42
2022-09-09T19:53:00.238Z,98836.06
2022-09-09T19:58:04.393Z,98835.74
2022-09-09T20:03:18.590Z,98845.09
2022-09-09T20:08:22.686Z,98847.10
2022-09-09T20:13:25.794Z,98851.13
2022-09-09T20:18:33.131Z,98845.86
2022-09-09T20:23:37.555Z,98838.55
2022-09-09T20:28:42.379Z,98844.72
2022-09-09T20:33:48.150Z,98840.49
2022-09-09T20:38:57.978Z,98847.63
2022-09-09T20:44:07.887Z,98852.73
2022-09-09T20:49:12.008Z,98856.34
2022-09-09T20:54:18.158Z,98852.82
2022-09-09T20:59:23.675Z,98845.94
2022-09-09T21:04:26.773Z,98842.91
2022-09-09T21:09:29.664Z,98846.73
2022-09-09T21:14:32.776Z,98849.88
2022-09-09T21:19:35.868Z,98853.44
2022-09-09T21:24:38.765Z,98854.28
2022-09-09T21:29:42.454Z,98857.81
2022-09-09T21:34:46.131Z,98860.88
2022-09-09T21:39:48.977Z,98842.37
2022-09-09T21:44:51.869Z,98833.94
2022-09-09T21:49:54.699Z,98833.94
2022-09-09T21:54:58.102Z,98837.39
2022-09-09T22:00:01.256Z,98847.80
2022-09-09T22:05:05.206Z,98859.29
2022-09-09T22:10:10.136Z,98857.34
2022-09-09T22:15:13.419Z,98836.38
2022-09-09T22:20:16.461Z,98814.25
2022-09-09T22:25:19.530Z,98819.19
2022-09-09T22:30:22.467Z,98829.84
2022-09-09T22:35:25.333Z,98828.30
2022-09-09T22:40:28.187Z,98824.27
2022-09-09T22:45:32.671Z,98816.05
2022-09-09T22:50:41.942Z,98814.30
2022-09-09T22:55:59.499Z,98812.67
2022-09-09T23:01:15.545Z,98808.25
2022-09-09T23:06:24.461Z,98798.73
2022-09-09T23:11:31.790Z,98801.40
2022-09-09T23:16:45.398Z,98794.91
2022-09-09T23:21:48.612Z,98790.35
2022-09-09T23:26:53.050Z,98788.00
2022-09-09T23:31:55.970Z,98777.55
2022-09-09T23:36:58.919Z,98776.41
2022-09-09T23:42:06.146Z,98770.71
2022-09-09T23:47:09.584Z,98768.25
2022-09-09T23:52:12.718Z,98773.15
2022-09-09T23:57:15.549Z,98771.80
